Mirny, Russia
Current Conditions -  °F | °C
As of 10:00 PM on Friday 28 Nov 2014 (Local Time) from URKK Reporting Station
Few Clouds Few Clouds  
Wind Chill: 34°   Ceiling: Unl
Heat Index: 34°   Visibility: 6mi
Dew Point: 30°   Wind: 2mph
Humidity: 87%   Direction: 350°N
Pressure: 30.36"   Gusts: NA
Location:  45.55°N, 38.91°E
Report Text: URKK 281900Z 35001MPS 9999 FEW046 01/M01 Q1028 NOSIG RMK QFE768SC070
Loading
Personal Weather Stations






























Interactive Weather Map New forecast layout! Learn more

10-Day Weather Forecast

Advertisements
Track Severe Weather on mobile